sensor_id;sensor_type;location;lat;lon;timestamp;P1;durP1;ratioP1;P2;durP2;ratioP2
44704;SDS011;30431;48.520;9.046;2024-03-02T00:01:52;10.60;;;7.00;;
44704;SDS011;30431;48.520;9.046;2024-03-02T00:04:21;11.60;;;6.45;;
44704;SDS011;30431;48.520;9.046;2024-03-02T00:06:53;12.13;;;7.38;;
44704;SDS011;30431;48.520;9.046;2024-03-02T00:09:23;11.18;;;6.82;;
44704;SDS011;30431;48.520;9.046;2024-03-02T00:11:51;9.70;;;7.07;;
44704;SDS011;30431;48.520;9.046;2024-03-02T00:14:18;10.45;;;6.80;;
44704;SDS011;30431;48.520;9.046;2024-03-02T00:16:45;9.95;;;7.10;;
44704;SDS011;30431;48.520;9.046;2024-03-02T00:19:12;10.95;;;6.55;;
44704;SDS011;30431;48.520;9.046;2024-03-02T00:21:42;9.60;;;6.50;;
44704;SDS011;30431;48.520;9.046;2024-03-02T00:24:17;11.98;;;6.35;;
44704;SDS011;30431;48.520;9.046;2024-03-02T00:26:48;10.35;;;7.07;;
44704;SDS011;30431;48.520;9.046;2024-03-02T00:29:15;12.07;;;6.85;;
44704;SDS011;30431;48.520;9.046;2024-03-02T00:31:43;9.32;;;6.30;;
44704;SDS011;30431;48.520;9.046;2024-03-02T00:34:14;10.30;;;6.82;;
44704;SDS011;30431;48.520;9.046;2024-03-02T00:36:47;12.10;;;7.05;;
44704;SDS011;30431;48.520;9.046;2024-03-02T00:39:17;9.05;;;6.70;;
44704;SDS011;30431;48.520;9.046;2024-03-02T00:41:47;11.23;;;6.85;;
44704;SDS011;30431;48.520;9.046;2024-03-02T00:44:19;11.30;;;6.35;;
44704;SDS011;30431;48.520;9.046;2024-03-02T00:46:53;10.43;;;7.10;;
44704;SDS011;30431;48.520;9.046;2024-03-02T00:49:21;10.10;;;6.72;;
44704;SDS011;30431;48.520;9.046;2024-03-02T00:51:52;10.73;;;6.75;;
44704;SDS011;30431;48.520;9.046;2024-03-02T00:54:26;10.63;;;6.22;;
44704;SDS011;30431;48.520;9.046;2024-03-02T00:56:57;10.55;;;6.45;;
44704;SDS011;30431;48.520;9.046;2024-03-02T00:59:30;11.55;;;6.60;;
44704;SDS011;30431;48.520;9.046;2024-03-02T01:01:58;8.35;;;6.13;;
44704;SDS011;30431;48.520;9.046;2024-03-02T01:04:25;13.50;;;7.10;;
44704;SDS011;30431;48.520;9.046;2024-03-02T01:06:52;11.65;;;8.02;;
44704;SDS011;30431;48.520;9.046;2024-03-02T01:11:48;16.88;;;11.63;;
44704;SDS011;30431;48.520;9.046;2024-03-02T01:14:15;20.58;;;11.68;;
44704;SDS011;30431;48.520;9.046;2024-03-02T01:16:42;59.20;;;27.25;;
44704;SDS011;30431;48.520;9.046;2024-03-02T01:19:11;19.90;;;10.80;;
44704;SDS011;30431;48.520;9.046;2024-03-02T01:21:41;12.95;;;8.63;;
44704;SDS011;30431;48.520;9.046;2024-03-02T01:24:10;20.77;;;10.75;;
44704;SDS011;30431;48.520;9.046;2024-03-02T01:26:37;22.10;;;12.20;;
44704;SDS011;30431;48.520;9.046;2024-03-02T01:29:04;34.05;;;15.27;;
44704;SDS011;30431;48.520;9.046;2024-03-02T01:31:31;55.20;;;24.38;;
44704;SDS011;30431;48.520;9.046;2024-03-02T01:34:00;61.50;;;29.85;;
44704;SDS011;30431;48.520;9.046;2024-03-02T01:36:27;19.13;;;11.45;;
44704;SDS011;30431;48.520;9.046;2024-03-02T01:38:54;12.52;;;8.55;;
44704;SDS011;30431;48.520;9.046;2024-03-02T01:41:24;30.77;;;16.27;;
44704;SDS011;30431;48.520;9.046;2024-03-02T01:43:51;25.15;;;12.35;;
44704;SDS011;30431;48.520;9.046;2024-03-02T01:46:18;16.83;;;10.65;;
44704;SDS011;30431;48.520;9.046;2024-03-02T01:48:45;25.27;;;12.48;;
44704;SDS011;30431;48.520;9.046;2024-03-02T01:51:17;35.08;;;17.52;;
44704;SDS011;30431;48.520;9.046;2024-03-02T01:53:44;28.40;;;13.52;;
44704;SDS011;30431;48.520;9.046;2024-03-02T01:56:11;38.58;;;16.58;;
44704;SDS011;30431;48.520;9.046;2024-03-02T01:58:38;48.95;;;18.40;;
44704;SDS011;30431;48.520;9.046;2024-03-02T02:01:05;43.47;;;18.85;;
44704;SDS011;30431;48.520;9.046;2024-03-02T02:06:01;61.28;;;20.02;;
44704;SDS011;30431;48.520;9.046;2024-03-02T02:08:31;62.58;;;20.77;;
44704;SDS011;30431;48.520;9.046;2024-03-02T02:10:58;59.88;;;20.13;;
44704;SDS011;30431;48.520;9.046;2024-03-02T02:13:29;57.60;;;21.55;;
44704;SDS011;30431;48.520;9.046;2024-03-02T02:16:04;31.02;;;14.85;;
44704;SDS011;30431;48.520;9.046;2024-03-02T02:18:32;21.83;;;10.73;;
44704;SDS011;30431;48.520;9.046;2024-03-02T02:20:59;41.53;;;19.42;;
44704;SDS011;30431;48.520;9.046;2024-03-02T02:23:28;24.35;;;12.10;;
44704;SDS011;30431;48.520;9.046;2024-03-02T02:25:55;26.52;;;13.02;;
44704;SDS011;30431;48.520;9.046;2024-03-02T02:28:24;23.02;;;13.70;;
44704;SDS011;30431;48.520;9.046;2024-03-02T02:30:54;23.42;;;13.75;;
44704;SDS011;30431;48.520;9.046;2024-03-02T02:33:22;24.45;;;12.88;;
44704;SDS011;30431;48.520;9.046;2024-03-02T02:35:52;18.65;;;12.10;;
44704;SDS011;30431;48.520;9.046;2024-03-02T02:38:22;22.95;;;15.82;;
44704;SDS011;30431;48.520;9.046;2024-03-02T02:40:49;33.00;;;20.85;;
44704;SDS011;30431;48.520;9.046;2024-03-02T02:43:18;33.58;;;20.88;;
44704;SDS011;30431;48.520;9.046;2024-03-02T02:45:45;31.67;;;15.82;;
44704;SDS011;30431;48.520;9.046;2024-03-02T02:48:15;28.38;;;15.95;;
44704;SDS011;30431;48.520;9.046;2024-03-02T02:50:42;28.40;;;15.23;;
44704;SDS011;30431;48.520;9.046;2024-03-02T02:53:09;29.67;;;15.55;;
44704;SDS011;30431;48.520;9.046;2024-03-02T02:55:39;29.15;;;14.63;;
44704;SDS011;30431;48.520;9.046;2024-03-02T02:58:09;26.25;;;13.45;;
44704;SDS011;30431;48.520;9.046;2024-03-02T03:00:36;13.63;;;9.10;;
44704;SDS011;30431;48.520;9.046;2024-03-02T03:03:06;14.88;;;9.15;;
44704;SDS011;30431;48.520;9.046;2024-03-02T03:05:35;14.70;;;9.68;;
44704;SDS011;30431;48.520;9.046;2024-03-02T03:08:02;16.42;;;11.30;;
44704;SDS011;30431;48.520;9.046;2024-03-02T03:10:31;12.43;;;8.32;;
44704;SDS011;30431;48.520;9.046;2024-03-02T03:13:02;14.52;;;8.25;;
44704;SDS011;30431;48.520;9.046;2024-03-02T03:15:29;16.95;;;8.73;;
44704;SDS011;30431;48.520;9.046;2024-03-02T03:18:01;14.93;;;9.23;;
44704;SDS011;30431;48.520;9.046;2024-03-02T03:20:30;13.88;;;8.90;;
44704;SDS011;30431;48.520;9.046;2024-03-02T03:22:57;15.73;;;9.88;;
44704;SDS011;30431;48.520;9.046;2024-03-02T03:25:27;16.63;;;9.68;;
44704;SDS011;30431;48.520;9.046;2024-03-02T03:27:54;14.43;;;8.27;;
44704;SDS011;30431;48.520;9.046;2024-03-02T03:30:21;13.60;;;9.50;;
44704;SDS011;30431;48.520;9.046;2024-03-02T03:32:48;13.70;;;8.73;;
44704;SDS011;30431;48.520;9.046;2024-03-02T03:35:17;15.73;;;10.38;;
44704;SDS011;30431;48.520;9.046;2024-03-02T03:37:44;12.13;;;9.05;;
44704;SDS011;30431;48.520;9.046;2024-03-02T03:40:14;14.35;;;9.55;;
44704;SDS011;30431;48.520;9.046;2024-03-02T03:42:41;16.33;;;10.45;;
44704;SDS011;30431;48.520;9.046;2024-03-02T03:45:08;15.90;;;10.00;;
44704;SDS011;30431;48.520;9.046;2024-03-02T03:47:37;16.00;;;10.27;;
44704;SDS011;30431;48.520;9.046;2024-03-02T03:50:06;14.85;;;10.15;;
44704;SDS011;30431;48.520;9.046;2024-03-02T03:52:36;16.77;;;10.80;;
44704;SDS011;30431;48.520;9.046;2024-03-02T03:55:05;15.30;;;9.55;;
44704;SDS011;30431;48.520;9.046;2024-03-02T03:57:37;14.60;;;9.65;;
44704;SDS011;30431;48.520;9.046;2024-03-02T04:00:04;14.05;;;10.00;;
44704;SDS011;30431;48.520;9.046;2024-03-02T04:02:39;15.27;;;10.45;;
44704;SDS011;30431;48.520;9.046;2024-03-02T04:05:06;17.23;;;11.45;;
44704;SDS011;30431;48.520;9.046;2024-03-02T04:07:38;16.10;;;10.52;;
44704;SDS011;30431;48.520;9.046;2024-03-02T04:10:10;13.93;;;9.77;;
44704;SDS011;30431;48.520;9.046;2024-03-02T04:12:41;13.00;;;9.25;;
44704;SDS011;30431;48.520;9.046;2024-03-02T04:15:10;14.55;;;8.88;;
44704;SDS011;30431;48.520;9.046;2024-03-02T04:17:37;10.77;;;8.73;;
44704;SDS011;30431;48.520;9.046;2024-03-02T04:20:07;11.73;;;9.18;;
44704;SDS011;30431;48.520;9.046;2024-03-02T04:22:34;10.85;;;8.35;;
44704;SDS011;30431;48.520;9.046;2024-03-02T04:25:02;16.60;;;8.75;;
44704;SDS011;30431;48.520;9.046;2024-03-02T04:27:33;12.13;;;8.77;;
44704;SDS011;30431;48.520;9.046;2024-03-02T04:30:00;12.60;;;8.95;;
44704;SDS011;30431;48.520;9.046;2024-03-02T04:32:27;14.82;;;10.75;;
44704;SDS011;30431;48.520;9.046;2024-03-02T04:37:21;16.95;;;10.82;;
44704;SDS011;30431;48.520;9.046;2024-03-02T04:39:48;27.05;;;11.25;;
44704;SDS011;30431;48.520;9.046;2024-03-02T04:42:15;14.25;;;10.15;;
44704;SDS011;30431;48.520;9.046;2024-03-02T04:44:42;15.48;;;10.40;;
44704;SDS011;30431;48.520;9.046;2024-03-02T04:47:15;13.93;;;9.68;;
44704;SDS011;30431;48.520;9.046;2024-03-02T04:49:43;23.55;;;10.63;;
44704;SDS011;30431;48.520;9.046;2024-03-02T04:52:12;30.83;;;11.93;;
44704;SDS011;30431;48.520;9.046;2024-03-02T04:54:42;20.48;;;11.77;;
44704;SDS011;30431;48.520;9.046;2024-03-02T04:57:30;25.80;;;12.25;;
44704;SDS011;30431;48.520;9.046;2024-03-02T04:59:59;20.60;;;11.73;;
44704;SDS011;30431;48.520;9.046;2024-03-02T05:02:26;25.90;;;12.18;;
44704;SDS011;30431;48.520;9.046;2024-03-02T05:04:53;64.20;;;12.43;;
44704;SDS011;30431;48.520;9.046;2024-03-02T05:07:20;52.40;;;11.35;;
44704;SDS011;30431;48.520;9.046;2024-03-02T05:09:49;48.55;;;12.05;;
44704;SDS011;30431;48.520;9.046;2024-03-02T05:12:16;96.32;;;13.27;;
44704;SDS011;30431;48.520;9.046;2024-03-02T05:14:43;114.53;;;14.40;;
44704;SDS011;30431;48.520;9.046;2024-03-02T05:17:15;49.03;;;13.05;;
44704;SDS011;30431;48.520;9.046;2024-03-02T05:19:41;117.15;;;15.00;;
44704;SDS011;30431;48.520;9.046;2024-03-02T05:22:11;18.45;;;11.70;;
44704;SDS011;30431;48.520;9.046;2024-03-02T05:24:40;27.35;;;12.45;;
44704;SDS011;30431;48.520;9.046;2024-03-02T05:27:09;40.13;;;12.82;;
44704;SDS011;30431;48.520;9.046;2024-03-02T05:29:38;24.15;;;12.68;;
44704;SDS011;30431;48.520;9.046;2024-03-02T05:32:08;30.08;;;12.30;;
44704;SDS011;30431;48.520;9.046;2024-03-02T05:34:37;32.22;;;12.40;;
44704;SDS011;30431;48.520;9.046;2024-03-02T05:37:04;54.95;;;12.45;;
44704;SDS011;30431;48.520;9.046;2024-03-02T05:39:31;45.13;;;11.55;;
44704;SDS011;30431;48.520;9.046;2024-03-02T05:42:01;48.78;;;12.82;;
44704;SDS011;30431;48.520;9.046;2024-03-02T05:44:27;45.83;;;11.75;;
44704;SDS011;30431;48.520;9.046;2024-03-02T05:46:55;42.65;;;12.55;;
44704;SDS011;30431;48.520;9.046;2024-03-02T05:49:22;37.40;;;12.07;;
44704;SDS011;30431;48.520;9.046;2024-03-02T05:51:52;31.77;;;10.18;;
44704;SDS011;30431;48.520;9.046;2024-03-02T05:54:19;39.55;;;9.50;;
44704;SDS011;30431;48.520;9.046;2024-03-02T05:56:46;45.33;;;10.43;;
44704;SDS011;30431;48.520;9.046;2024-03-02T05:59:13;45.80;;;10.18;;
44704;SDS011;30431;48.520;9.046;2024-03-02T06:01:43;38.70;;;9.95;;
44704;SDS011;30431;48.520;9.046;2024-03-02T06:04:13;42.22;;;10.55;;
44704;SDS011;30431;48.520;9.046;2024-03-02T06:06:41;37.05;;;10.18;;
44704;SDS011;30431;48.520;9.046;2024-03-02T06:09:08;62.30;;;11.02;;
44704;SDS011;30431;48.520;9.046;2024-03-02T06:11:35;44.22;;;11.18;;
44704;SDS011;30431;48.520;9.046;2024-03-02T06:14:05;98.47;;;13.25;;
44704;SDS011;30431;48.520;9.046;2024-03-02T06:16:33;25.27;;;11.85;;
44704;SDS011;30431;48.520;9.046;2024-03-02T06:21:28;24.63;;;11.80;;
44704;SDS011;30431;48.520;9.046;2024-03-02T06:23:55;40.38;;;11.85;;
44704;SDS011;30431;48.520;9.046;2024-03-02T06:26:23;48.55;;;13.13;;
44704;SDS011;30431;48.520;9.046;2024-03-02T06:28:52;64.80;;;13.10;;
44704;SDS011;30431;48.520;9.046;2024-03-02T06:31:19;64.40;;;12.63;;
44704;SDS011;30431;48.520;9.046;2024-03-02T06:33:46;35.38;;;11.73;;
44704;SDS011;30431;48.520;9.046;2024-03-02T06:36:13;120.68;;;13.43;;
44704;SDS011;30431;48.520;9.046;2024-03-02T06:38:42;69.05;;;12.18;;
44704;SDS011;30431;48.520;9.046;2024-03-02T06:41:09;80.75;;;11.85;;
44704;SDS011;30431;48.520;9.046;2024-03-02T06:43:37;39.38;;;10.05;;
44704;SDS011;30431;48.520;9.046;2024-03-02T06:46:05;53.97;;;11.45;;
44704;SDS011;30431;48.520;9.046;2024-03-02T06:48:36;41.10;;;10.55;;
44704;SDS011;30431;48.520;9.046;2024-03-02T06:51:06;35.35;;;10.93;;
44704;SDS011;30431;48.520;9.046;2024-03-02T06:53:33;20.50;;;10.07;;
44704;SDS011;30431;48.520;9.046;2024-03-02T06:56:03;15.95;;;9.98;;
44704;SDS011;30431;48.520;9.046;2024-03-02T06:58:30;21.63;;;10.23;;
44704;SDS011;30431;48.520;9.046;2024-03-02T07:00:59;20.30;;;10.48;;
44704;SDS011;30431;48.520;9.046;2024-03-02T07:03:26;58.60;;;9.63;;
44704;SDS011;30431;48.520;9.046;2024-03-02T07:05:53;204.65;;;114.07;;
44704;SDS011;30431;48.520;9.046;2024-03-02T07:08:28;23.60;;;11.00;;
44704;SDS011;30431;48.520;9.046;2024-03-02T07:10:57;18.80;;;9.93;;
44704;SDS011;30431;48.520;9.046;2024-03-02T07:13:27;16.80;;;8.98;;
44704;SDS011;30431;48.520;9.046;2024-03-02T07:15:54;43.17;;;9.02;;
44704;SDS011;30431;48.520;9.046;2024-03-02T07:18:40;21.73;;;8.70;;
44704;SDS011;30431;48.520;9.046;2024-03-02T07:21:08;13.25;;;8.73;;
44704;SDS011;30431;48.520;9.046;2024-03-02T07:23:35;16.48;;;8.63;;
44704;SDS011;30431;48.520;9.046;2024-03-02T07:26:05;13.23;;;9.15;;
44704;SDS011;30431;48.520;9.046;2024-03-02T07:28:35;14.13;;;9.13;;
44704;SDS011;30431;48.520;9.046;2024-03-02T07:31:04;29.73;;;9.48;;
44704;SDS011;30431;48.520;9.046;2024-03-02T07:33:33;19.42;;;8.98;;
44704;SDS011;30431;48.520;9.046;2024-03-02T07:36:05;12.60;;;9.63;;
44704;SDS011;30431;48.520;9.046;2024-03-02T07:38:34;13.55;;;9.00;;
44704;SDS011;30431;48.520;9.046;2024-03-02T07:41:02;13.13;;;9.77;;
44704;SDS011;30431;48.520;9.046;2024-03-02T07:43:33;15.88;;;8.68;;
44704;SDS011;30431;48.520;9.046;2024-03-02T07:46:00;13.45;;;8.98;;
44704;SDS011;30431;48.520;9.046;2024-03-02T07:48:32;13.90;;;9.73;;
44704;SDS011;30431;48.520;9.046;2024-03-02T07:51:04;10.85;;;8.88;;
44704;SDS011;30431;48.520;9.046;2024-03-02T07:53:31;14.48;;;9.85;;
44704;SDS011;30431;48.520;9.046;2024-03-02T07:56:04;15.15;;;9.10;;
44704;SDS011;30431;48.520;9.046;2024-03-02T07:58:31;11.80;;;9.40;;
44704;SDS011;30431;48.520;9.046;2024-03-02T08:01:00;12.68;;;9.45;;
44704;SDS011;30431;48.520;9.046;2024-03-02T08:03:28;13.25;;;9.70;;
44704;SDS011;30431;48.520;9.046;2024-03-02T08:05:58;13.45;;;10.10;;
44704;SDS011;30431;48.520;9.046;2024-03-02T08:08:30;14.27;;;10.60;;
44704;SDS011;30431;48.520;9.046;2024-03-02T08:10:57;18.60;;;12.70;;
44704;SDS011;30431;48.520;9.046;2024-03-02T08:13:27;56.95;;;20.98;;
44704;SDS011;30431;48.520;9.046;2024-03-02T08:15:56;25.50;;;15.45;;
44704;SDS011;30431;48.520;9.046;2024-03-02T08:18:24;22.45;;;14.77;;
44704;SDS011;30431;48.520;9.046;2024-03-02T08:20:51;28.25;;;12.43;;
44704;SDS011;30431;48.520;9.046;2024-03-02T08:23:21;33.70;;;11.60;;
44704;SDS011;30431;48.520;9.046;2024-03-02T08:25:48;20.92;;;13.35;;
44704;SDS011;30431;48.520;9.046;2024-03-02T08:28:15;24.52;;;11.73;;
44704;SDS011;30431;48.520;9.046;2024-03-02T08:30:42;13.32;;;10.10;;
44704;SDS011;30431;48.520;9.046;2024-03-02T08:33:09;15.23;;;10.63;;
44704;SDS011;30431;48.520;9.046;2024-03-02T08:35:39;14.23;;;10.63;;
44704;SDS011;30431;48.520;9.046;2024-03-02T08:38:06;18.67;;;9.63;;
44704;SDS011;30431;48.520;9.046;2024-03-02T08:40:33;14.52;;;10.40;;
44704;SDS011;30431;48.520;9.046;2024-03-02T08:43:00;12.75;;;9.45;;
44704;SDS011;30431;48.520;9.046;2024-03-02T08:45:27;11.40;;;8.88;;
44704;SDS011;30431;48.520;9.046;2024-03-02T08:47:54;15.65;;;10.30;;
44704;SDS011;30431;48.520;9.046;2024-03-02T08:50:21;12.32;;;8.73;;
44704;SDS011;30431;48.520;9.046;2024-03-02T08:52:53;10.88;;;8.77;;
44704;SDS011;30431;48.520;9.046;2024-03-02T08:55:22;10.75;;;8.55;;
44704;SDS011;30431;48.520;9.046;2024-03-02T08:57:49;10.55;;;7.75;;
44704;SDS011;30431;48.520;9.046;2024-03-02T09:00:17;11.20;;;8.27;;
44704;SDS011;30431;48.520;9.046;2024-03-02T09:02:47;10.05;;;7.55;;
44704;SDS011;30431;48.520;9.046;2024-03-02T09:05:19;10.85;;;8.10;;
44704;SDS011;30431;48.520;9.046;2024-03-02T09:07:48;10.77;;;8.55;;
44704;SDS011;30431;48.520;9.046;2024-03-02T09:10:22;11.93;;;9.45;;
44704;SDS011;30431;48.520;9.046;2024-03-02T09:12:54;11.30;;;9.25;;
44704;SDS011;30431;48.520;9.046;2024-03-02T09:15:21;12.70;;;9.75;;
44704;SDS011;30431;48.520;9.046;2024-03-02T09:17:48;14.95;;;9.55;;
44704;SDS011;30431;48.520;9.046;2024-03-02T09:20:15;12.45;;;9.70;;
44704;SDS011;30431;48.520;9.046;2024-03-02T09:22:42;13.70;;;9.07;;
44704;SDS011;30431;48.520;9.046;2024-03-02T09:25:10;13.90;;;9.60;;
44704;SDS011;30431;48.520;9.046;2024-03-02T09:27:42;11.90;;;10.13;;
44704;SDS011;30431;48.520;9.046;2024-03-02T09:30:12;12.70;;;10.27;;
44704;SDS011;30431;48.520;9.046;2024-03-02T09:32:40;13.65;;;9.93;;
44704;SDS011;30431;48.520;9.046;2024-03-02T09:35:09;12.25;;;9.52;;
44704;SDS011;30431;48.520;9.046;2024-03-02T09:37:38;12.20;;;8.45;;
44704;SDS011;30431;48.520;9.046;2024-03-02T09:40:08;12.20;;;8.90;;
44704;SDS011;30431;48.520;9.046;2024-03-02T09:42:35;11.20;;;8.60;;
44704;SDS011;30431;48.520;9.046;2024-03-02T09:45:03;10.40;;;7.90;;
44704;SDS011;30431;48.520;9.046;2024-03-02T09:47:30;10.02;;;7.90;;
44704;SDS011;30431;48.520;9.046;2024-03-02T09:52:24;9.85;;;7.57;;
44704;SDS011;30431;48.520;9.046;2024-03-02T09:54:52;10.50;;;8.15;;
44704;SDS011;30431;48.520;9.046;2024-03-02T09:57:24;10.95;;;7.32;;
44704;SDS011;30431;48.520;9.046;2024-03-02T09:59:53;10.00;;;7.18;;
44704;SDS011;30431;48.520;9.046;2024-03-02T10:02:23;9.50;;;7.13;;
44704;SDS011;30431;48.520;9.046;2024-03-02T10:04:51;7.80;;;6.13;;
44704;SDS011;30431;48.520;9.046;2024-03-02T10:07:20;7.65;;;5.60;;
44704;SDS011;30431;48.520;9.046;2024-03-02T10:09:48;7.88;;;5.72;;
44704;SDS011;30431;48.520;9.046;2024-03-02T10:12:18;7.18;;;5.85;;
44704;SDS011;30431;48.520;9.046;2024-03-02T10:14:45;7.90;;;5.60;;
44704;SDS011;30431;48.520;9.046;2024-03-02T10:17:17;6.93;;;5.13;;
44704;SDS011;30431;48.520;9.046;2024-03-02T10:19:50;8.05;;;5.70;;
44704;SDS011;30431;48.520;9.046;2024-03-02T10:22:17;8.60;;;6.28;;
44704;SDS011;30431;48.520;9.046;2024-03-02T10:24:44;8.23;;;5.78;;
44704;SDS011;30431;48.520;9.046;2024-03-02T10:27:23;8.10;;;5.13;;
44704;SDS011;30431;48.520;9.046;2024-03-02T10:29:58;8.43;;;5.30;;
44704;SDS011;30431;48.520;9.046;2024-03-02T10:32:25;7.43;;;5.20;;
44704;SDS011;30431;48.520;9.046;2024-03-02T10:34:55;8.15;;;5.38;;
44704;SDS011;30431;48.520;9.046;2024-03-02T10:37:22;8.95;;;6.03;;
44704;SDS011;30431;48.520;9.046;2024-03-02T10:39:50;6.93;;;4.95;;
44704;SDS011;30431;48.520;9.046;2024-03-02T10:42:21;9.82;;;4.90;;
44704;SDS011;30431;48.520;9.046;2024-03-02T10:44:49;9.40;;;4.70;;
44704;SDS011;30431;48.520;9.046;2024-03-02T10:47:16;6.80;;;5.15;;
44704;SDS011;30431;48.520;9.046;2024-03-02T10:49:52;5.75;;;4.55;;
44704;SDS011;30431;48.520;9.046;2024-03-02T10:52:20;6.75;;;4.70;;
44704;SDS011;30431;48.520;9.046;2024-03-02T10:54:49;7.07;;;4.63;;
44704;SDS011;30431;48.520;9.046;2024-03-02T10:57:22;6.82;;;4.47;;
44704;SDS011;30431;48.520;9.046;2024-03-02T10:59:58;5.72;;;4.10;;
44704;SDS011;30431;48.520;9.046;2024-03-02T11:02:29;4.63;;;3.90;;
44704;SDS011;30431;48.520;9.046;2024-03-02T11:05:01;7.55;;;5.07;;
44704;SDS011;30431;48.520;9.046;2024-03-02T11:07:35;8.57;;;5.30;;
44704;SDS011;30431;48.520;9.046;2024-03-02T11:10:04;6.85;;;4.75;;
44704;SDS011;30431;48.520;9.046;2024-03-02T11:15:06;5.75;;;3.75;;
44704;SDS011;30431;48.520;9.046;2024-03-02T11:17:37;6.90;;;3.97;;
44704;SDS011;30431;48.520;9.046;2024-03-02T11:20:12;4.80;;;3.70;;
44704;SDS011;30431;48.520;9.046;2024-03-02T11:22:41;6.00;;;3.65;;
44704;SDS011;30431;48.520;9.046;2024-03-02T11:25:22;4.80;;;3.60;;
44704;SDS011;30431;48.520;9.046;2024-03-02T11:33:04;3.72;;;2.55;;
44704;SDS011;30431;48.520;9.046;2024-03-02T11:38:19;3.15;;;2.50;;
44704;SDS011;30431;48.520;9.046;2024-03-02T11:40:49;4.38;;;2.80;;
44704;SDS011;30431;48.520;9.046;2024-03-02T11:43:16;4.28;;;2.80;;
44704;SDS011;30431;48.520;9.046;2024-03-02T11:45:43;3.92;;;2.60;;
44704;SDS011;30431;48.520;9.046;2024-03-02T11:48:12;3.83;;;2.53;;
44704;SDS011;30431;48.520;9.046;2024-03-02T11:50:46;3.58;;;2.50;;
44704;SDS011;30431;48.520;9.046;2024-03-02T11:53:21;3.65;;;2.40;;
44704;SDS011;30431;48.520;9.046;2024-03-02T11:55:51;5.13;;;2.78;;
44704;SDS011;30431;48.520;9.046;2024-03-02T11:58:21;3.38;;;2.40;;
44704;SDS011;30431;48.520;9.046;2024-03-02T12:00:50;2.97;;;2.38;;
44704;SDS011;30431;48.520;9.046;2024-03-02T12:03:18;4.93;;;2.50;;
44704;SDS011;30431;48.520;9.046;2024-03-02T12:05:52;4.35;;;2.38;;
44704;SDS011;30431;48.520;9.046;2024-03-02T12:08:22;3.30;;;2.20;;
44704;SDS011;30431;48.520;9.046;2024-03-02T12:10:57;4.78;;;2.55;;
44704;SDS011;30431;48.520;9.046;2024-03-02T12:13:27;3.13;;;2.30;;
44704;SDS011;30431;48.520;9.046;2024-03-02T12:15:57;2.78;;;2.00;;
44704;SDS011;30431;48.520;9.046;2024-03-02T12:18:27;2.05;;;1.85;;
44704;SDS011;30431;48.520;9.046;2024-03-02T12:20:56;3.83;;;1.90;;
44704;SDS011;30431;48.520;9.046;2024-03-02T12:23:25;3.22;;;2.40;;
44704;SDS011;30431;48.520;9.046;2024-03-02T12:25:52;2.28;;;1.85;;
44704;SDS011;30431;48.520;9.046;2024-03-02T12:28:24;2.97;;;2.13;;
44704;SDS011;30431;48.520;9.046;2024-03-02T12:30:53;3.80;;;1.73;;
44704;SDS011;30431;48.520;9.046;2024-03-02T12:33:24;2.60;;;2.10;;
44704;SDS011;30431;48.520;9.046;2024-03-02T12:35:54;2.40;;;1.90;;
44704;SDS011;30431;48.520;9.046;2024-03-02T12:38:25;3.88;;;2.10;;
44704;SDS011;30431;48.520;9.046;2024-03-02T12:40:53;3.17;;;2.10;;
44704;SDS011;30431;48.520;9.046;2024-03-02T12:43:22;3.13;;;2.10;;
44704;SDS011;30431;48.520;9.046;2024-03-02T12:45:53;3.90;;;2.08;;
44704;SDS011;30431;48.520;9.046;2024-03-02T12:48:22;2.70;;;2.17;;
44704;SDS011;30431;48.520;9.046;2024-03-02T12:50:49;2.80;;;1.95;;
44704;SDS011;30431;48.520;9.046;2024-03-02T12:53:19;2.42;;;1.65;;
44704;SDS011;30431;48.520;9.046;2024-03-02T12:55:48;3.15;;;2.15;;
44704;SDS011;30431;48.520;9.046;2024-03-02T12:58:21;3.67;;;1.88;;
44704;SDS011;30431;48.520;9.046;2024-03-02T13:00:49;6.10;;;2.08;;
44704;SDS011;30431;48.520;9.046;2024-03-02T13:05:49;3.38;;;1.98;;
44704;SDS011;30431;48.520;9.046;2024-03-02T13:08:19;2.97;;;1.83;;
44704;SDS011;30431;48.520;9.046;2024-03-02T13:10:46;3.28;;;2.30;;
44704;SDS011;30431;48.520;9.046;2024-03-02T13:13:14;3.42;;;2.15;;
44704;SDS011;30431;48.520;9.046;2024-03-02T13:15:41;2.60;;;1.95;;
44704;SDS011;30431;48.520;9.046;2024-03-02T13:18:13;2.58;;;2.17;;
44704;SDS011;30431;48.520;9.046;2024-03-02T13:20:41;3.35;;;2.05;;
44704;SDS011;30431;48.520;9.046;2024-03-02T13:23:08;2.92;;;2.10;;
44704;SDS011;30431;48.520;9.046;2024-03-02T13:25:35;2.53;;;2.03;;
44704;SDS011;30431;48.520;9.046;2024-03-02T13:28:04;2.85;;;2.05;;
44704;SDS011;30431;48.520;9.046;2024-03-02T13:30:35;2.45;;;1.95;;
44704;SDS011;30431;48.520;9.046;2024-03-02T13:33:04;2.58;;;1.92;;
44704;SDS011;30431;48.520;9.046;2024-03-02T13:35:32;2.50;;;1.95;;
44704;SDS011;30431;48.520;9.046;2024-03-02T13:37:59;2.63;;;2.10;;
44704;SDS011;30431;48.520;9.046;2024-03-02T13:40:26;3.58;;;2.20;;
44704;SDS011;30431;48.520;9.046;2024-03-02T13:42:56;2.92;;;2.03;;
44704;SDS011;30431;48.520;9.046;2024-03-02T13:45:23;2.67;;;1.80;;
44704;SDS011;30431;48.520;9.046;2024-03-02T13:47:50;2.97;;;2.00;;
44704;SDS011;30431;48.520;9.046;2024-03-02T13:50:22;5.85;;;2.08;;
44704;SDS011;30431;48.520;9.046;2024-03-02T13:52:51;3.30;;;2.05;;
44704;SDS011;30431;48.520;9.046;2024-03-02T13:55:18;2.58;;;1.98;;
44704;SDS011;30431;48.520;9.046;2024-03-02T13:57:47;2.63;;;2.03;;
44704;SDS011;30431;48.520;9.046;2024-03-02T14:00:17;2.00;;;1.80;;
44704;SDS011;30431;48.520;9.046;2024-03-02T14:02:47;2.42;;;1.77;;
44704;SDS011;30431;48.520;9.046;2024-03-02T14:05:17;2.35;;;1.88;;
44704;SDS011;30431;48.520;9.046;2024-03-02T14:07:45;1.77;;;1.60;;
44704;SDS011;30431;48.520;9.046;2024-03-02T14:10:12;2.63;;;1.73;;
44704;SDS011;30431;48.520;9.046;2024-03-02T14:12:41;2.60;;;1.77;;
44704;SDS011;30431;48.520;9.046;2024-03-02T14:15:10;1.75;;;1.50;;
44704;SDS011;30431;48.520;9.046;2024-03-02T14:17:37;5.43;;;2.13;;
44704;SDS011;30431;48.520;9.046;2024-03-02T14:20:05;3.00;;;2.25;;
44704;SDS011;30431;48.520;9.046;2024-03-02T14:22:33;3.70;;;2.30;;
44704;SDS011;30431;48.520;9.046;2024-03-02T14:30:16;3.35;;;2.47;;
44704;SDS011;30431;48.520;9.046;2024-03-02T14:32:46;4.22;;;2.80;;
44704;SDS011;30431;48.520;9.046;2024-03-02T14:35:13;2.70;;;2.10;;
44704;SDS011;30431;48.520;9.046;2024-03-02T14:37:40;2.75;;;1.60;;
44704;SDS011;30431;48.520;9.046;2024-03-02T14:40:07;1.65;;;1.55;;
44704;SDS011;30431;48.520;9.046;2024-03-02T14:42:36;1.73;;;1.40;;
44704;SDS011;30431;48.520;9.046;2024-03-02T14:45:06;2.40;;;1.40;;
44704;SDS011;30431;48.520;9.046;2024-03-02T14:47:36;1.65;;;1.55;;
44704;SDS011;30431;48.520;9.046;2024-03-02T14:50:03;1.67;;;1.35;;
44704;SDS011;30431;48.520;9.046;2024-03-02T14:52:32;1.40;;;1.30;;
44704;SDS011;30431;48.520;9.046;2024-03-02T14:55:02;1.92;;;1.60;;
44704;SDS011;30431;48.520;9.046;2024-03-02T14:57:30;2.30;;;1.50;;
44704;SDS011;30431;48.520;9.046;2024-03-02T14:59:57;1.50;;;1.40;;
44704;SDS011;30431;48.520;9.046;2024-03-02T15:02:24;2.40;;;1.10;;
44704;SDS011;30431;48.520;9.046;2024-03-02T15:04:53;1.95;;;1.40;;
44704;SDS011;30431;48.520;9.046;2024-03-02T15:07:20;2.15;;;1.80;;
44704;SDS011;30431;48.520;9.046;2024-03-02T15:09:47;2.13;;;1.58;;
44704;SDS011;30431;48.520;9.046;2024-03-02T15:14:43;2.25;;;1.45;;
44704;SDS011;30431;48.520;9.046;2024-03-02T15:17:13;3.15;;;1.60;;